sensor_id;sensor_type;location;lat;lon;timestamp;pressure;altitude;pressure_sealevel;temperature;humidity
25560;BME280;13450;49.374;8.584;2022-12-07T00:00:50;100720.22;;;2.04;100.00
25560;BME280;13450;49.374;8.584;2022-12-07T00:03:18;100728.81;;;2.06;100.00
25560;BME280;13450;49.374;8.584;2022-12-07T00:05:44;100725.38;;;2.05;100.00
25560;BME280;13450;49.374;8.584;2022-12-07T00:08:10;100722.59;;;2.07;100.00
25560;BME280;13450;49.374;8.584;2022-12-07T00:10:35;100723.31;;;2.09;100.00
25560;BME280;13450;49.374;8.584;2022-12-07T00:13:01;100719.72;;;2.10;100.00
25560;BME280;13450;49.374;8.584;2022-12-07T00:15:26;100717.81;;;2.12;100.00
25560;BME280;13450;49.374;8.584;2022-12-07T00:17:53;100717.81;;;2.12;100.00
25560;BME280;13450;49.374;8.584;2022-12-07T00:20:18;100707.25;;;2.12;100.00
25560;BME280;13450;49.374;8.584;2022-12-07T00:22:46;100705.53;;;2.11;100.00
25560;BME280;13450;49.374;8.584;2022-12-07T00:25:11;100700.00;;;2.14;100.00
25560;BME280;13450;49.374;8.584;2022-12-07T00:27:36;100686.81;;;2.14;100.00
25560;BME280;13450;49.374;8.584;2022-12-07T00:30:02;100687.50;;;2.16;100.00
25560;BME280;13450;49.374;8.584;2022-12-07T00:32:30;100680.31;;;2.18;100.00
25560;BME280;13450;49.374;8.584;2022-12-07T00:34:55;100689.91;;;2.19;100.00
25560;BME280;13450;49.374;8.584;2022-12-07T00:37:20;100701.34;;;2.20;100.00
25560;BME280;13450;49.374;8.584;2022-12-07T00:39:46;100703.97;;;2.20;100.00
25560;BME280;13450;49.374;8.584;2022-12-07T00:42:11;100694.84;;;2.24;100.00
25560;BME280;13450;49.374;8.584;2022-12-07T00:44:36;100690.25;;;2.26;100.00
25560;BME280;13450;49.374;8.584;2022-12-07T00:47:02;100691.69;;;2.30;100.00
25560;BME280;13450;49.374;8.584;2022-12-07T00:49:29;100690.47;;;2.34;100.00
25560;BME280;13450;49.374;8.584;2022-12-07T00:51:55;100686.75;;;2.37;100.00
25560;BME280;13450;49.374;8.584;2022-12-07T00:54:20;100678.81;;;2.37;100.00
25560;BME280;13450;49.374;8.584;2022-12-07T00:56:45;100680.50;;;2.38;100.00
25560;BME280;13450;49.374;8.584;2022-12-07T00:59:12;100680.50;;;2.38;100.00
25560;BME280;13450;49.374;8.584;2022-12-07T01:01:39;100687.59;;;2.38;100.00
25560;BME280;13450;49.374;8.584;2022-12-07T01:04:05;100695.25;;;2.41;100.00
25560;BME280;13450;49.374;8.584;2022-12-07T01:06:30;100699.44;;;2.43;100.00
25560;BME280;13450;49.374;8.584;2022-12-07T01:08:56;100696.81;;;2.43;100.00
25560;BME280;13450;49.374;8.584;2022-12-07T01:11:26;100707.13;;;2.46;100.00
25560;BME280;13450;49.374;8.584;2022-12-07T01:13:53;100697.53;;;2.45;100.00
25560;BME280;13450;49.374;8.584;2022-12-07T01:16:20;100702.81;;;2.45;100.00
25560;BME280;13450;49.374;8.584;2022-12-07T01:18:47;100702.94;;;2.44;100.00
25560;BME280;13450;49.374;8.584;2022-12-07T01:21:16;100692.28;;;2.34;100.00
25560;BME280;13450;49.374;8.584;2022-12-07T01:23:42;100699.63;;;2.30;100.00
25560;BME280;13450;49.374;8.584;2022-12-07T01:26:12;100706.00;;;2.28;100.00
25560;BME280;13450;49.374;8.584;2022-12-07T01:28:38;100701.41;;;2.30;100.00
25560;BME280;13450;49.374;8.584;2022-12-07T01:31:15;100705.75;;;2.31;100.00
25560;BME280;13450;49.374;8.584;2022-12-07T01:33:42;100704.66;;;2.33;100.00
25560;BME280;13450;49.374;8.584;2022-12-07T01:38:38;100707.28;;;2.33;100.00
25560;BME280;13450;49.374;8.584;2022-12-07T01:41:03;100709.94;;;2.33;100.00
25560;BME280;13450;49.374;8.584;2022-12-07T01:43:33;100696.63;;;2.35;100.00
25560;BME280;13450;49.374;8.584;2022-12-07T01:45:58;100698.53;;;2.33;100.00
25560;BME280;13450;49.374;8.584;2022-12-07T01:48:27;100693.47;;;2.30;100.00
25560;BME280;13450;49.374;8.584;2022-12-07T01:50:56;100693.47;;;2.30;100.00
25560;BME280;13450;49.374;8.584;2022-12-07T01:53:24;100688.19;;;2.30;100.00
25560;BME280;13450;49.374;8.584;2022-12-07T01:55:52;100679.56;;;2.28;100.00
25560;BME280;13450;49.374;8.584;2022-12-07T01:58:18;100667.34;;;2.27;100.00
25560;BME280;13450;49.374;8.584;2022-12-07T02:00:45;100669.53;;;2.21;100.00
25560;BME280;13450;49.374;8.584;2022-12-07T02:03:18;100667.81;;;2.20;100.00
25560;BME280;13450;49.374;8.584;2022-12-07T02:05:46;100679.94;;;2.23;100.00
25560;BME280;13450;49.374;8.584;2022-12-07T02:08:13;100676.22;;;2.26;100.00
25560;BME280;13450;49.374;8.584;2022-12-07T02:10:39;100698.75;;;2.30;100.00
25560;BME280;13450;49.374;8.584;2022-12-07T02:13:12;100690.72;;;2.31;100.00
25560;BME280;13450;49.374;8.584;2022-12-07T02:21:34;100680.50;;;2.38;100.00
25560;BME280;13450;49.374;8.584;2022-12-07T02:24:30;100675.22;;;2.38;100.00
25560;BME280;13450;49.374;8.584;2022-12-07T02:30:06;100677.16;;;2.36;100.00
25560;BME280;13450;49.374;8.584;2022-12-07T02:32:40;100673.78;;;2.34;100.00
25560;BME280;13450;49.374;8.584;2022-12-07T02:38:07;100671.66;;;2.28;100.00
25560;BME280;13450;49.374;8.584;2022-12-07T02:40:43;100674.06;;;2.31;100.00
25560;BME280;13450;49.374;8.584;2022-12-07T02:43:17;100668.16;;;2.27;100.00
25560;BME280;13450;49.374;8.584;2022-12-07T02:45:47;100659.53;;;2.25;100.00
25560;BME280;13450;49.374;8.584;2022-12-07T02:48:16;100649.34;;;2.20;100.00
25560;BME280;13450;49.374;8.584;2022-12-07T02:50:49;100643.59;;;2.15;100.00
25560;BME280;13450;49.374;8.584;2022-12-07T02:53:38;100637.72;;;2.12;100.00
25560;BME280;13450;49.374;8.584;2022-12-07T02:59:13;100661.63;;;2.10;100.00
25560;BME280;13450;49.374;8.584;2022-12-07T03:02:18;100663.28;;;2.11;100.00
25560;BME280;13450;49.374;8.584;2022-12-07T03:07:47;100671.59;;;2.06;100.00
25560;BME280;13450;49.374;8.584;2022-12-07T03:10:24;100663.78;;;2.05;100.00
25560;BME280;13450;49.374;8.584;2022-12-07T03:13:09;100666.44;;;2.05;100.00
25560;BME280;13450;49.374;8.584;2022-12-07T03:15:42;100662.34;;;2.01;100.00
25560;BME280;13450;49.374;8.584;2022-12-07T03:18:13;100665.00;;;2.01;100.00
25560;BME280;13450;49.374;8.584;2022-12-07T03:20:41;100662.34;;;2.01;100.00
25560;BME280;13450;49.374;8.584;2022-12-07T03:23:18;100663.34;;;2.00;100.00
25560;BME280;13450;49.374;8.584;2022-12-07T03:25:48;100654.19;;;2.04;100.00
25560;BME280;13450;49.374;8.584;2022-12-07T03:28:18;100656.56;;;2.07;100.00
25560;BME280;13450;49.374;8.584;2022-12-07T03:30:54;100653.69;;;2.10;100.00
25560;BME280;13450;49.374;8.584;2022-12-07T03:33:25;100653.09;;;2.06;100.00
25560;BME280;13450;49.374;8.584;2022-12-07T03:36:04;100646.53;;;2.01;100.00
25560;BME280;13450;49.374;8.584;2022-12-07T03:38:38;100646.75;;;1.98;100.00
25560;BME280;13450;49.374;8.584;2022-12-07T03:41:26;100645.31;;;1.93;100.00
25560;BME280;13450;49.374;8.584;2022-12-07T03:43:55;100646.53;;;1.89;100.00
25560;BME280;13450;49.374;8.584;2022-12-07T03:46:31;100648.47;;;1.87;100.00
25560;BME280;13450;49.374;8.584;2022-12-07T03:49:24;100641.53;;;1.86;100.00
25560;BME280;13450;49.374;8.584;2022-12-07T03:54:26;100636.13;;;1.88;100.00
25560;BME280;13450;49.374;8.584;2022-12-07T03:56:57;100638.59;;;1.89;100.00
25560;BME280;13450;49.374;8.584;2022-12-07T03:59:23;100639.59;;;1.88;100.00
25560;BME280;13450;49.374;8.584;2022-12-07T04:01:55;100638.88;;;1.86;100.00
25560;BME280;13450;49.374;8.584;2022-12-07T04:04:24;100640.78;;;1.84;100.00
25560;BME280;13450;49.374;8.584;2022-12-07T04:06:50;100640.44;;;1.89;100.00
25560;BME280;13450;49.374;8.584;2022-12-07T04:09:15;100648.22;;;1.90;100.00
25560;BME280;13450;49.374;8.584;2022-12-07T04:11:41;100641.75;;;1.94;100.00
25560;BME280;13450;49.374;8.584;2022-12-07T04:14:07;100641.75;;;1.94;100.00
25560;BME280;13450;49.374;8.584;2022-12-07T04:16:53;100630.34;;;1.94;100.00
25560;BME280;13450;49.374;8.584;2022-12-07T04:19:32;100630.34;;;1.94;100.00
25560;BME280;13450;49.374;8.584;2022-12-07T04:21:59;100633.81;;;1.94;100.00
25560;BME280;13450;49.374;8.584;2022-12-07T04:24:26;100630.34;;;1.94;100.00
25560;BME280;13450;49.374;8.584;2022-12-07T04:26:51;100626.84;;;1.93;100.00
25560;BME280;13450;49.374;8.584;2022-12-07T04:29:17;100625.06;;;1.94;100.00
25560;BME280;13450;49.374;8.584;2022-12-07T04:31:44;100638.13;;;1.95;100.00
25560;BME280;13450;49.374;8.584;2022-12-07T04:34:10;100634.53;;;1.96;100.00
25560;BME280;13450;49.374;8.584;2022-12-07T04:36:36;100627.34;;;1.99;100.00
25560;BME280;13450;49.374;8.584;2022-12-07T04:39:02;100620.34;;;1.98;100.00
25560;BME280;13450;49.374;8.584;2022-12-07T04:41:32;100622.75;;;2.01;100.00
25560;BME280;13450;49.374;8.584;2022-12-07T04:44:00;100621.78;;;2.02;100.00
25560;BME280;13450;49.374;8.584;2022-12-07T04:46:29;100624.31;;;2.03;100.00
25560;BME280;13450;49.374;8.584;2022-12-07T04:48:55;100626.84;;;2.05;100.00
25560;BME280;13450;49.374;8.584;2022-12-07T04:51:23;100627.41;;;2.08;100.00
25560;BME280;13450;49.374;8.584;2022-12-07T04:53:51;100630.91;;;2.09;100.00
25560;BME280;13450;49.374;8.584;2022-12-07T04:56:17;100633.31;;;2.12;100.00
25560;BME280;13450;49.374;8.584;2022-12-07T04:58:45;100632.06;;;2.16;100.00
25560;BME280;13450;49.374;8.584;2022-12-07T05:01:10;100634.47;;;2.19;100.00
25560;BME280;13450;49.374;8.584;2022-12-07T05:03:36;100636.13;;;2.20;100.00
25560;BME280;13450;49.374;8.584;2022-12-07T05:06:02;100635.19;;;2.21;100.00
25560;BME280;13450;49.374;8.584;2022-12-07T05:08:27;100635.03;;;2.23;100.00
25560;BME280;13450;49.374;8.584;2022-12-07T05:10:53;100636.72;;;2.24;100.00
25560;BME280;13450;49.374;8.584;2022-12-07T05:13:18;100631.34;;;2.26;100.00
25560;BME280;13450;49.374;8.584;2022-12-07T05:15:43;100632.72;;;2.30;100.00
25560;BME280;13450;49.374;8.584;2022-12-07T05:18:10;100625.66;;;2.30;100.00
25560;BME280;13450;49.374;8.584;2022-12-07T05:20:38;100624.81;;;2.30;100.00
25560;BME280;13450;49.374;8.584;2022-12-07T05:23:04;100624.81;;;2.30;100.00
25560;BME280;13450;49.374;8.584;2022-12-07T05:25:30;100617.84;;;2.29;100.00
25560;BME280;13450;49.374;8.584;2022-12-07T05:27:55;100622.16;;;2.30;100.00
25560;BME280;13450;49.374;8.584;2022-12-07T05:30:22;100616.19;;;2.28;100.00
25560;BME280;13450;49.374;8.584;2022-12-07T05:32:47;100618.13;;;2.26;100.00
25560;BME280;13450;49.374;8.584;2022-12-07T05:35:13;100619.81;;;2.27;100.00
25560;BME280;13450;49.374;8.584;2022-12-07T05:37:41;100612.84;;;2.26;100.00
25560;BME280;13450;49.374;8.584;2022-12-07T05:40:06;100610.91;;;2.28;100.00
25560;BME280;13450;49.374;8.584;2022-12-07T05:42:32;100611.59;;;2.30;100.00
25560;BME280;13450;49.374;8.584;2022-12-07T05:44:59;100626.50;;;2.31;100.00
25560;BME280;13450;49.374;8.584;2022-12-07T05:47:25;100629.03;;;2.32;100.00
25560;BME280;13450;49.374;8.584;2022-12-07T05:49:52;100620.25;;;2.32;100.00
25560;BME280;13450;49.374;8.584;2022-12-07T05:52:17;100621.91;;;2.33;100.00
25560;BME280;13450;49.374;8.584;2022-12-07T05:54:43;100612.31;;;2.32;100.00
25560;BME280;13450;49.374;8.584;2022-12-07T05:57:08;100614.25;;;2.30;100.00
25560;BME280;13450;49.374;8.584;2022-12-07T05:59:34;100619.41;;;2.31;100.00
25560;BME280;13450;49.374;8.584;2022-12-07T06:02:10;100615.22;;;2.29;100.00
25560;BME280;13450;49.374;8.584;2022-12-07T06:04:38;100613.31;;;2.31;100.00
25560;BME280;13450;49.374;8.584;2022-12-07T06:07:04;100621.22;;;2.31;100.00
25560;BME280;13450;49.374;8.584;2022-12-07T06:09:30;100621.22;;;2.31;100.00
25560;BME280;13450;49.374;8.584;2022-12-07T06:11:56;100624.00;;;2.29;100.00
25560;BME280;13450;49.374;8.584;2022-12-07T06:14:41;100629.16;;;2.31;100.00
25560;BME280;13450;49.374;8.584;2022-12-07T06:17:06;100626.50;;;2.31;100.00
25560;BME280;13450;49.374;8.584;2022-12-07T06:19:32;100621.91;;;2.33;100.00
25560;BME280;13450;49.374;8.584;2022-12-07T06:21:57;100624.56;;;2.33;100.00
25560;BME280;13450;49.374;8.584;2022-12-07T06:24:23;100626.22;;;2.34;100.00
25560;BME280;13450;49.374;8.584;2022-12-07T06:26:49;100628.88;;;2.34;100.00
25560;BME280;13450;49.374;8.584;2022-12-07T06:29:16;100625.28;;;2.35;100.00
25560;BME280;13450;49.374;8.584;2022-12-07T06:31:42;100621.69;;;2.36;100.00
25560;BME280;13450;49.374;8.584;2022-12-07T06:34:16;100628.75;;;2.35;100.00
25560;BME280;13450;49.374;8.584;2022-12-07T06:36:41;100627.66;;;2.38;100.00
25560;BME280;13450;49.374;8.584;2022-12-07T06:39:07;100634.38;;;2.42;100.00
25560;BME280;13450;49.374;8.584;2022-12-07T06:41:35;100634.13;;;2.45;100.00
25560;BME280;13450;49.374;8.584;2022-12-07T06:44:01;100633.28;;;2.45;100.00
25560;BME280;13450;49.374;8.584;2022-12-07T06:46:27;100636.88;;;2.44;100.00
25560;BME280;13450;49.374;8.584;2022-12-07T06:48:52;100630.75;;;2.43;100.00
25560;BME280;13450;49.374;8.584;2022-12-07T06:51:20;100634.38;;;2.42;100.00
25560;BME280;13450;49.374;8.584;2022-12-07T06:53:45;100632.94;;;2.38;100.00
25560;BME280;13450;49.374;8.584;2022-12-07T06:56:13;100640.16;;;2.36;100.00
25560;BME280;13450;49.374;8.584;2022-12-07T06:58:38;100635.84;;;2.35;100.00
25560;BME280;13450;49.374;8.584;2022-12-07T07:01:17;100636.81;;;2.34;100.00
25560;BME280;13450;49.374;8.584;2022-12-07T07:03:46;100636.81;;;2.34;100.00
25560;BME280;13450;49.374;8.584;2022-12-07T07:06:12;100639.44;;;2.34;100.00
25560;BME280;13450;49.374;8.584;2022-12-07T07:08:39;100637.78;;;2.33;100.00
25560;BME280;13450;49.374;8.584;2022-12-07T07:11:05;100646.66;;;2.32;100.00
25560;BME280;13450;49.374;8.584;2022-12-07T07:13:30;100638.75;;;2.32;100.00
25560;BME280;13450;49.374;8.584;2022-12-07T07:15:56;100641.13;;;2.35;100.00
25560;BME280;13450;49.374;8.584;2022-12-07T07:18:21;100641.13;;;2.35;100.00
25560;BME280;13450;49.374;8.584;2022-12-07T07:20:47;100647.13;;;2.37;100.00
25560;BME280;13450;49.374;8.584;2022-12-07T07:23:14;100647.13;;;2.37;100.00
25560;BME280;13450;49.374;8.584;2022-12-07T07:25:41;100657.44;;;2.40;100.00
25560;BME280;13450;49.374;8.584;2022-12-07T07:28:09;100654.81;;;2.40;100.00
25560;BME280;13450;49.374;8.584;2022-12-07T07:30:34;100655.50;;;2.42;100.00
25560;BME280;13450;49.374;8.584;2022-12-07T07:33:01;100649.53;;;2.40;100.00
25560;BME280;13450;49.374;8.584;2022-12-07T07:35:28;100653.84;;;2.41;100.00
25560;BME280;13450;49.374;8.584;2022-12-07T07:37:54;100644.13;;;2.42;100.00
25560;BME280;13450;49.374;8.584;2022-12-07T07:40:20;100648.53;;;2.41;100.00
25560;BME280;13450;49.374;8.584;2022-12-07T07:42:53;100665.38;;;2.40;100.00
25560;BME280;13450;49.374;8.584;2022-12-07T07:45:20;100653.84;;;2.41;100.00
25560;BME280;13450;49.374;8.584;2022-12-07T07:47:46;100655.50;;;2.42;100.00
25560;BME280;13450;49.374;8.584;2022-12-07T07:50:12;100647.56;;;2.42;100.00
25560;BME280;13450;49.374;8.584;2022-12-07T07:52:38;100658.88;;;2.44;100.00
25560;BME280;13450;49.374;8.584;2022-12-07T07:55:03;100667.25;;;2.50;100.00
25560;BME280;13450;49.374;8.584;2022-12-07T07:57:29;100665.59;;;2.48;100.00
25560;BME280;13450;49.374;8.584;2022-12-07T07:59:54;100669.78;;;2.51;100.00
25560;BME280;13450;49.374;8.584;2022-12-07T08:02:20;100664.50;;;2.51;100.00
25560;BME280;13450;49.374;8.584;2022-12-07T08:04:48;100671.56;;;2.51;100.00
25560;BME280;13450;49.374;8.584;2022-12-07T08:07:14;100670.47;;;2.53;100.00
25560;BME280;13450;49.374;8.584;2022-12-07T08:09:41;100669.50;;;2.54;100.00
25560;BME280;13450;49.374;8.584;2022-12-07T08:12:09;100673.84;;;2.55;100.00
25560;BME280;13450;49.374;8.584;2022-12-07T08:14:34;100676.34;;;2.57;100.00
25560;BME280;13450;49.374;8.584;2022-12-07T08:16:59;100674.28;;;2.60;100.00
25560;BME280;13450;49.374;8.584;2022-12-07T08:19:25;100677.38;;;2.66;100.00
25560;BME280;13450;49.374;8.584;2022-12-07T08:21:50;100680.88;;;2.66;100.00
25560;BME280;13450;49.374;8.584;2022-12-07T08:24:16;100678.94;;;2.68;100.00
25560;BME280;13450;49.374;8.584;2022-12-07T08:26:41;100679.91;;;2.67;100.00
25560;BME280;13450;49.374;8.584;2022-12-07T08:29:06;100668.38;;;2.68;100.00
25560;BME280;13450;49.374;8.584;2022-12-07T08:31:32;100674.22;;;2.72;100.00
25560;BME280;13450;49.374;8.584;2022-12-07T08:33:57;100674.69;;;2.77;100.00
25560;BME280;13450;49.374;8.584;2022-12-07T08:36:26;100680.56;;;2.81;100.00
25560;BME280;13450;49.374;8.584;2022-12-07T08:38:51;100676.41;;;2.88;100.00
25560;BME280;13450;49.374;8.584;2022-12-07T08:41:17;100676.41;;;2.88;100.00
25560;BME280;13450;49.374;8.584;2022-12-07T08:43:44;100682.03;;;2.95;100.00
25560;BME280;13450;49.374;8.584;2022-12-07T08:46:16;100678.69;;;2.93;100.00
25560;BME280;13450;49.374;8.584;2022-12-07T08:48:48;100679.66;;;2.92;100.00
25560;BME280;13450;49.374;8.584;2022-12-07T08:51:15;100679.66;;;2.92;100.00
25560;BME280;13450;49.374;8.584;2022-12-07T08:53:41;100679.38;;;2.95;100.00
25560;BME280;13450;49.374;8.584;2022-12-07T08:56:07;100674.81;;;2.97;100.00
25560;BME280;13450;49.374;8.584;2022-12-07T08:58:34;100683.22;;;3.02;100.00
25560;BME280;13450;49.374;8.584;2022-12-07T09:01:00;100678.22;;;3.09;100.00
25560;BME280;13450;49.374;8.584;2022-12-07T09:03:26;100669.31;;;3.10;100.00
25560;BME280;13450;49.374;8.584;2022-12-07T09:05:52;100670.75;;;3.14;100.00
25560;BME280;13450;49.374;8.584;2022-12-07T09:08:19;100668.53;;;3.19;100.00
25560;BME280;13450;49.374;8.584;2022-12-07T09:10:44;100670.41;;;3.29;100.00
25560;BME280;13450;49.374;8.584;2022-12-07T09:13:11;100669.34;;;3.41;100.00
25560;BME280;13450;49.374;8.584;2022-12-07T09:15:36;100672.34;;;3.58;100.00
25560;BME280;13450;49.374;8.584;2022-12-07T09:18:02;100676.72;;;3.78;100.00
25560;BME280;13450;49.374;8.584;2022-12-07T09:20:27;100673.44;;;3.96;100.00
25560;BME280;13450;49.374;8.584;2022-12-07T09:22:52;100676.09;;;4.06;100.00
25560;BME280;13450;49.374;8.584;2022-12-07T09:25:18;100664.81;;;4.14;100.00
25560;BME280;13450;49.374;8.584;2022-12-07T09:27:46;100666.38;;;4.26;100.00
25560;BME280;13450;49.374;8.584;2022-12-07T09:30:11;100667.91;;;4.39;100.00
25560;BME280;13450;49.374;8.584;2022-12-07T09:32:37;100663.88;;;4.54;100.00
25560;BME280;13450;49.374;8.584;2022-12-07T09:35:04;100670.44;;;4.70;100.00
25560;BME280;13450;49.374;8.584;2022-12-07T09:37:30;100665.53;;;4.75;100.00
25560;BME280;13450;49.374;8.584;2022-12-07T09:39:59;100671.66;;;4.86;100.00
25560;BME280;13450;49.374;8.584;2022-12-07T09:42:41;100667.06;;;4.78;100.00
25560;BME280;13450;49.374;8.584;2022-12-07T09:45:24;100662.72;;;4.87;100.00
25560;BME280;13450;49.374;8.584;2022-12-07T09:47:50;100665.81;;;4.72;100.00
25560;BME280;13450;49.374;8.584;2022-12-07T09:50:20;100661.22;;;4.74;100.00
25560;BME280;13450;49.374;8.584;2022-12-07T09:52:48;100662.22;;;4.63;100.00
25560;BME280;13450;49.374;8.584;2022-12-07T09:55:19;100658.28;;;4.57;100.00
25560;BME280;13450;49.374;8.584;2022-12-07T09:57:49;100658.72;;;4.43;100.00
25560;BME280;13450;49.374;8.584;2022-12-07T10:00:18;100661.06;;;4.26;100.00
25560;BME280;13450;49.374;8.584;2022-12-07T10:02:59;100652.00;;;4.19;100.00
25560;BME280;13450;49.374;8.584;2022-12-07T10:05:30;100644.34;;;4.16;100.00
25560;BME280;13450;49.374;8.584;2022-12-07T10:07:57;100651.00;;;4.00;100.00
25560;BME280;13450;49.374;8.584;2022-12-07T10:10:32;100644.44;;;4.04;100.00
25560;BME280;13450;49.374;8.584;2022-12-07T10:13:12;100643.75;;;4.12;100.00
25560;BME280;13450;49.374;8.584;2022-12-07T10:23:35;100639.03;;;4.36;100.00
25560;BME280;13450;49.374;8.584;2022-12-07T10:26:19;100648.53;;;4.38;100.00
25560;BME280;13450;49.374;8.584;2022-12-07T10:28:47;100634.88;;;4.43;100.00
25560;BME280;13450;49.374;8.584;2022-12-07T10:31:17;100637.63;;;4.61;100.00
25560;BME280;13450;49.374;8.584;2022-12-07T10:34:00;100631.91;;;4.66;100.00
25560;BME280;13450;49.374;8.584;2022-12-07T10:36:38;100638.75;;;4.78;100.00
25560;BME280;13450;49.374;8.584;2022-12-07T10:39:10;100631.47;;;4.90;100.00
25560;BME280;13450;49.374;8.584;2022-12-07T10:41:52;100622.44;;;5.11;100.00
25560;BME280;13450;49.374;8.584;2022-12-07T10:44:26;100617.22;;;5.29;100.00
25560;BME280;13450;49.374;8.584;2022-12-07T10:46:59;100617.41;;;5.46;100.00
25560;BME280;13450;49.374;8.584;2022-12-07T10:55:20;100612.59;;;5.87;100.00
25560;BME280;13450;49.374;8.584;2022-12-07T11:00:25;100612.91;;;5.56;100.00
25560;BME280;13450;49.374;8.584;2022-12-07T11:05:58;100610.94;;;5.58;100.00
25560;BME280;13450;49.374;8.584;2022-12-07T11:08:48;100607.28;;;5.59;100.00
25560;BME280;13450;49.374;8.584;2022-12-07T11:14:13;100604.00;;;5.75;100.00
25560;BME280;13450;49.374;8.584;2022-12-07T11:22:14;100591.47;;;6.32;100.00
25560;BME280;13450;49.374;8.584;2022-12-07T11:24:54;100592.41;;;6.49;100.00
25560;BME280;13450;49.374;8.584;2022-12-07T11:32:53;100576.72;;;7.17;100.00
25560;BME280;13450;49.374;8.584;2022-12-07T11:35:38;100579.88;;;7.64;100.00
25560;BME280;13450;49.374;8.584;2022-12-07T11:38:16;100570.81;;;7.40;100.00
25560;BME280;13450;49.374;8.584;2022-12-07T11:40:48;100567.53;;;6.85;100.00
25560;BME280;13450;49.374;8.584;2022-12-07T11:43:24;100558.50;;;6.43;100.00
25560;BME280;13450;49.374;8.584;2022-12-07T11:48:35;100557.38;;;6.09;100.00
25560;BME280;13450;49.374;8.584;2022-12-07T11:51:07;100560.84;;;5.92;100.00
25560;BME280;13450;49.374;8.584;2022-12-07T11:56:14;100561.59;;;5.66;100.00
25560;BME280;13450;49.374;8.584;2022-12-07T12:06:39;100549.72;;;5.42;100.00
25560;BME280;13450;49.374;8.584;2022-12-07T12:09:51;100544.09;;;5.45;100.00
25560;BME280;13450;49.374;8.584;2022-12-07T12:20:51;100543.44;;;5.61;100.00
25560;BME280;13450;49.374;8.584;2022-12-07T12:23:22;100538.72;;;5.73;100.00
25560;BME280;13450;49.374;8.584;2022-12-07T12:25:55;100528.97;;;5.92;100.00
25560;BME280;13450;49.374;8.584;2022-12-07T12:29:15;100525.63;;;6.26;100.00
25560;BME280;13450;49.374;8.584;2022-12-07T12:31:24;100524.91;;;6.69;100.00
25560;BME280;13450;49.374;8.584;2022-12-07T12:33:57;100528.22;;;6.97;100.00
25560;BME280;13450;49.374;8.584;2022-12-07T12:39:17;100529.59;;;8.77;100.00
25560;BME280;13450;49.374;8.584;2022-12-07T12:46:53;100520.63;;;8.45;100.00
25560;BME280;13450;49.374;8.584;2022-12-07T12:51:47;100517.94;;;7.70;100.00
25560;BME280;13450;49.374;8.584;2022-12-07T12:54:55;100519.84;;;7.35;100.00
25560;BME280;13450;49.374;8.584;2022-12-07T12:57:27;100519.03;;;6.91;100.00
25560;BME280;13450;49.374;8.584;2022-12-07T13:02:35;100516.16;;;6.50;100.00
25560;BME280;13450;49.374;8.584;2022-12-07T13:15:54;100499.31;;;6.14;100.00
25560;BME280;13450;49.374;8.584;2022-12-07T13:26:22;100494.44;;;5.73;100.00
25560;BME280;13450;49.374;8.584;2022-12-07T13:31:42;100490.41;;;5.51;100.00
25560;BME280;13450;49.374;8.584;2022-12-07T13:34:33;100488.97;;;5.39;100.00
25560;BME280;13450;49.374;8.584;2022-12-07T13:39:56;100485.84;;;5.25;100.00
25560;BME280;13450;49.374;8.584;2022-12-07T13:42:26;100473.31;;;5.17;100.00
25560;BME280;13450;49.374;8.584;2022-12-07T13:44:52;100474.75;;;5.12;100.00
25560;BME280;13450;49.374;8.584;2022-12-07T13:50:25;100471.09;;;5.13;100.00
25560;BME280;13450;49.374;8.584;2022-12-07T13:52:55;100480.19;;;5.10;100.00
25560;BME280;13450;49.374;8.584;2022-12-07T13:55:20;100471.38;;;5.09;100.00
25560;BME280;13450;49.374;8.584;2022-12-07T13:57:49;100474.22;;;5.08;100.00
25560;BME280;13450;49.374;8.584;2022-12-07T14:00:20;100475.63;;;5.02;100.00
25560;BME280;13450;49.374;8.584;2022-12-07T14:03:22;100469.19;;;5.05;100.00
25560;BME280;13450;49.374;8.584;2022-12-07T14:06:04;100468.66;;;5.01;100.00
25560;BME280;13450;49.374;8.584;2022-12-07T14:08:30;100464.03;;;5.03;100.00
25560;BME280;13450;49.374;8.584;2022-12-07T14:10:56;100467.53;;;5.04;100.00
25560;BME280;13450;49.374;8.584;2022-12-07T14:15:51;100474.44;;;5.15;100.00
25560;BME280;13450;49.374;8.584;2022-12-07T14:26:51;100461.72;;;5.18;100.00
25560;BME280;13450;49.374;8.584;2022-12-07T14:31:54;100464.13;;;5.12;100.00
25560;BME280;13450;49.374;8.584;2022-12-07T14:34:21;100468.91;;;5.08;100.00
25560;BME280;13450;49.374;8.584;2022-12-07T14:36:51;100476.44;;;5.03;100.00
25560;BME280;13450;49.374;8.584;2022-12-07T14:39:16;100470.75;;;4.97;100.00
25560;BME280;13450;49.374;8.584;2022-12-07T14:41:44;100471.88;;;4.95;100.00
25560;BME280;13450;49.374;8.584;2022-12-07T14:44:16;100467.84;;;4.91;100.00
25560;BME280;13450;49.374;8.584;2022-12-07T14:46:41;100472.75;;;4.86;100.00
25560;BME280;13450;49.374;8.584;2022-12-07T14:49:06;100466.41;;;4.78;100.00
25560;BME280;13450;49.374;8.584;2022-12-07T14:51:33;100462.75;;;4.79;100.00
25560;BME280;13450;49.374;8.584;2022-12-07T14:53:59;100462.38;;;4.74;100.00
25560;BME280;13450;49.374;8.584;2022-12-07T14:56:25;100471.97;;;4.75;100.00
25560;BME280;13450;49.374;8.584;2022-12-07T14:58:50;100465.69;;;4.76;100.00
25560;BME280;13450;49.374;8.584;2022-12-07T15:01:16;100466.16;;;4.71;100.00
25560;BME280;13450;49.374;8.584;2022-12-07T15:03:43;100466.28;;;4.70;100.00
25560;BME280;13450;49.374;8.584;2022-12-07T15:06:15;100464.91;;;4.66;100.00
25560;BME280;13450;49.374;8.584;2022-12-07T15:08:41;100463.25;;;4.65;100.00
25560;BME280;13450;49.374;8.584;2022-12-07T15:11:11;100467.31;;;4.59;100.00
25560;BME280;13450;49.374;8.584;2022-12-07T15:13:37;100460.16;;;4.60;100.00